sensor_id;sensor_type;location;lat;lon;timestamp;P1;durP1;ratioP1;P2;durP2;ratioP2
25962;SDS011;13760;52.588;13.406;2022-07-22T00:01:02;10.82;;;7.70;;
25962;SDS011;13760;52.588;13.406;2022-07-22T00:03:27;9.43;;;7.97;;
25962;SDS011;13760;52.588;13.406;2022-07-22T00:05:53;12.48;;;8.02;;
25962;SDS011;13760;52.588;13.406;2022-07-22T00:08:19;8.82;;;7.75;;
25962;SDS011;13760;52.588;13.406;2022-07-22T00:10:44;9.35;;;8.07;;
25962;SDS011;13760;52.588;13.406;2022-07-22T00:13:10;8.32;;;7.35;;
25962;SDS011;13760;52.588;13.406;2022-07-22T00:15:36;11.73;;;8.27;;
25962;SDS011;13760;52.588;13.406;2022-07-22T00:18:01;8.27;;;7.47;;
25962;SDS011;13760;52.588;13.406;2022-07-22T00:20:27;8.98;;;8.10;;
25962;SDS011;13760;52.588;13.406;2022-07-22T00:22:52;8.07;;;7.28;;
25962;SDS011;13760;52.588;13.406;2022-07-22T00:25:18;10.27;;;7.15;;
25962;SDS011;13760;52.588;13.406;2022-07-22T00:27:44;8.57;;;7.72;;
25962;SDS011;13760;52.588;13.406;2022-07-22T00:30:09;7.90;;;7.10;;
25962;SDS011;13760;52.588;13.406;2022-07-22T00:32:35;8.68;;;7.25;;
25962;SDS011;13760;52.588;13.406;2022-07-22T00:35:01;8.90;;;7.05;;
25962;SDS011;13760;52.588;13.406;2022-07-22T00:37:27;7.70;;;7.00;;
25962;SDS011;13760;52.588;13.406;2022-07-22T00:39:52;7.18;;;6.38;;
25962;SDS011;13760;52.588;13.406;2022-07-22T00:42:18;7.82;;;6.32;;
25962;SDS011;13760;52.588;13.406;2022-07-22T00:44:44;8.32;;;6.50;;
25962;SDS011;13760;52.588;13.406;2022-07-22T00:47:10;10.02;;;6.40;;
25962;SDS011;13760;52.588;13.406;2022-07-22T00:49:36;7.47;;;6.68;;
25962;SDS011;13760;52.588;13.406;2022-07-22T00:52:02;8.18;;;6.72;;
25962;SDS011;13760;52.588;13.406;2022-07-22T00:54:28;9.60;;;7.22;;
25962;SDS011;13760;52.588;13.406;2022-07-22T00:56:54;7.65;;;6.38;;
25962;SDS011;13760;52.588;13.406;2022-07-22T00:59:20;8.15;;;5.93;;
25962;SDS011;13760;52.588;13.406;2022-07-22T01:01:46;7.82;;;6.03;;
25962;SDS011;13760;52.588;13.406;2022-07-22T01:04:11;6.40;;;5.80;;
25962;SDS011;13760;52.588;13.406;2022-07-22T01:06:37;6.68;;;6.03;;
25962;SDS011;13760;52.588;13.406;2022-07-22T01:09:03;5.95;;;5.35;;
25962;SDS011;13760;52.588;13.406;2022-07-22T01:11:29;6.30;;;5.13;;
25962;SDS011;13760;52.588;13.406;2022-07-22T01:13:56;6.40;;;5.30;;
25962;SDS011;13760;52.588;13.406;2022-07-22T01:16:22;7.18;;;5.30;;
25962;SDS011;13760;52.588;13.406;2022-07-22T01:18:48;6.38;;;5.40;;
25962;SDS011;13760;52.588;13.406;2022-07-22T01:21:14;7.40;;;5.57;;
25962;SDS011;13760;52.588;13.406;2022-07-22T01:23:40;6.90;;;5.03;;
25962;SDS011;13760;52.588;13.406;2022-07-22T01:26:07;7.15;;;5.10;;
25962;SDS011;13760;52.588;13.406;2022-07-22T01:28:33;9.07;;;5.63;;
25962;SDS011;13760;52.588;13.406;2022-07-22T01:30:59;5.90;;;5.05;;
25962;SDS011;13760;52.588;13.406;2022-07-22T01:33:25;8.10;;;5.70;;
25962;SDS011;13760;52.588;13.406;2022-07-22T01:35:51;6.43;;;5.10;;
25962;SDS011;13760;52.588;13.406;2022-07-22T01:38:16;7.40;;;5.13;;
25962;SDS011;13760;52.588;13.406;2022-07-22T01:40:42;8.40;;;5.15;;
25962;SDS011;13760;52.588;13.406;2022-07-22T01:43:09;7.40;;;5.28;;
25962;SDS011;13760;52.588;13.406;2022-07-22T01:45:35;5.78;;;4.95;;
25962;SDS011;13760;52.588;13.406;2022-07-22T01:48:01;5.70;;;5.07;;
25962;SDS011;13760;52.588;13.406;2022-07-22T01:50:27;5.55;;;4.95;;
25962;SDS011;13760;52.588;13.406;2022-07-22T01:52:53;7.95;;;5.05;;
25962;SDS011;13760;52.588;13.406;2022-07-22T01:55:19;7.32;;;5.20;;
25962;SDS011;13760;52.588;13.406;2022-07-22T01:57:45;5.45;;;4.70;;
25962;SDS011;13760;52.588;13.406;2022-07-22T02:00:11;6.15;;;4.78;;
25962;SDS011;13760;52.588;13.406;2022-07-22T02:02:37;5.75;;;4.68;;
25962;SDS011;13760;52.588;13.406;2022-07-22T02:05:03;8.02;;;4.95;;
25962;SDS011;13760;52.588;13.406;2022-07-22T02:07:30;7.93;;;4.70;;
25962;SDS011;13760;52.588;13.406;2022-07-22T02:09:56;7.05;;;4.90;;
25962;SDS011;13760;52.588;13.406;2022-07-22T02:12:21;6.15;;;5.25;;
25962;SDS011;13760;52.588;13.406;2022-07-22T02:14:47;6.28;;;4.88;;
25962;SDS011;13760;52.588;13.406;2022-07-22T02:17:13;7.45;;;4.97;;
25962;SDS011;13760;52.588;13.406;2022-07-22T02:19:39;5.65;;;4.93;;
25962;SDS011;13760;52.588;13.406;2022-07-22T02:22:05;7.65;;;5.30;;
25962;SDS011;13760;52.588;13.406;2022-07-22T02:24:31;6.18;;;5.10;;
25962;SDS011;13760;52.588;13.406;2022-07-22T02:26:57;6.88;;;5.47;;
25962;SDS011;13760;52.588;13.406;2022-07-22T02:29:23;8.38;;;5.85;;
25962;SDS011;13760;52.588;13.406;2022-07-22T02:31:48;6.63;;;5.50;;
25962;SDS011;13760;52.588;13.406;2022-07-22T02:34:14;5.63;;;5.05;;
25962;SDS011;13760;52.588;13.406;2022-07-22T02:36:39;6.30;;;5.55;;
25962;SDS011;13760;52.588;13.406;2022-07-22T02:39:05;6.25;;;5.53;;
25962;SDS011;13760;52.588;13.406;2022-07-22T02:41:31;6.40;;;5.57;;
25962;SDS011;13760;52.588;13.406;2022-07-22T02:43:57;8.35;;;5.60;;
25962;SDS011;13760;52.588;13.406;2022-07-22T02:46:23;6.50;;;5.50;;
25962;SDS011;13760;52.588;13.406;2022-07-22T02:48:49;8.75;;;6.38;;
25962;SDS011;13760;52.588;13.406;2022-07-22T02:51:15;7.93;;;5.95;;
25962;SDS011;13760;52.588;13.406;2022-07-22T02:53:41;6.72;;;5.97;;
25962;SDS011;13760;52.588;13.406;2022-07-22T02:56:07;7.20;;;6.22;;
25962;SDS011;13760;52.588;13.406;2022-07-22T02:58:33;6.85;;;6.15;;
25962;SDS011;13760;52.588;13.406;2022-07-22T03:00:59;7.07;;;6.38;;
25962;SDS011;13760;52.588;13.406;2022-07-22T03:03:24;8.25;;;6.03;;
25962;SDS011;13760;52.588;13.406;2022-07-22T03:05:50;6.60;;;5.93;;
25962;SDS011;13760;52.588;13.406;2022-07-22T03:08:16;7.50;;;6.05;;
25962;SDS011;13760;52.588;13.406;2022-07-22T03:10:42;7.85;;;6.85;;
25962;SDS011;13760;52.588;13.406;2022-07-22T03:13:09;7.05;;;6.35;;
25962;SDS011;13760;52.588;13.406;2022-07-22T03:15:34;8.13;;;6.65;;
25962;SDS011;13760;52.588;13.406;2022-07-22T03:18:00;7.38;;;6.68;;
25962;SDS011;13760;52.588;13.406;2022-07-22T03:20:26;7.28;;;6.57;;
25962;SDS011;13760;52.588;13.406;2022-07-22T03:22:52;7.75;;;6.93;;
25962;SDS011;13760;52.588;13.406;2022-07-22T03:25:17;7.53;;;6.70;;
25962;SDS011;13760;52.588;13.406;2022-07-22T03:27:43;8.73;;;7.10;;
25962;SDS011;13760;52.588;13.406;2022-07-22T03:30:09;7.55;;;6.85;;
25962;SDS011;13760;52.588;13.406;2022-07-22T03:32:35;7.78;;;6.78;;
25962;SDS011;13760;52.588;13.406;2022-07-22T03:35:01;8.35;;;7.47;;
25962;SDS011;13760;52.588;13.406;2022-07-22T03:37:27;9.80;;;7.18;;
25962;SDS011;13760;52.588;13.406;2022-07-22T03:39:53;9.50;;;7.85;;
25962;SDS011;13760;52.588;13.406;2022-07-22T03:42:18;10.00;;;8.25;;
25962;SDS011;13760;52.588;13.406;2022-07-22T03:44:44;10.07;;;8.40;;
25962;SDS011;13760;52.588;13.406;2022-07-22T03:47:10;9.75;;;8.25;;
25962;SDS011;13760;52.588;13.406;2022-07-22T03:49:35;10.13;;;8.52;;
25962;SDS011;13760;52.588;13.406;2022-07-22T03:52:01;10.43;;;9.32;;
25962;SDS011;13760;52.588;13.406;2022-07-22T03:54:26;11.23;;;8.77;;
25962;SDS011;13760;52.588;13.406;2022-07-22T03:56:52;11.27;;;9.18;;
25962;SDS011;13760;52.588;13.406;2022-07-22T03:59:18;9.80;;;8.80;;
25962;SDS011;13760;52.588;13.406;2022-07-22T04:01:43;10.20;;;8.38;;
25962;SDS011;13760;52.588;13.406;2022-07-22T04:04:09;11.18;;;9.18;;
25962;SDS011;13760;52.588;13.406;2022-07-22T04:06:34;13.18;;;10.43;;
25962;SDS011;13760;52.588;13.406;2022-07-22T04:09:00;9.20;;;8.25;;
25962;SDS011;13760;52.588;13.406;2022-07-22T04:11:26;11.05;;;9.40;;
25962;SDS011;13760;52.588;13.406;2022-07-22T04:13:51;11.73;;;8.80;;
25962;SDS011;13760;52.588;13.406;2022-07-22T04:19:36;9.75;;;8.02;;
25962;SDS011;13760;52.588;13.406;2022-07-22T04:22:14;10.02;;;9.00;;
25962;SDS011;13760;52.588;13.406;2022-07-22T04:24:39;11.90;;;9.60;;
25962;SDS011;13760;52.588;13.406;2022-07-22T04:27:21;12.52;;;9.85;;
25962;SDS011;13760;52.588;13.406;2022-07-22T04:29:46;10.30;;;9.23;;
25962;SDS011;13760;52.588;13.406;2022-07-22T04:32:25;12.55;;;9.15;;
25962;SDS011;13760;52.588;13.406;2022-07-22T04:34:53;13.13;;;10.70;;
25962;SDS011;13760;52.588;13.406;2022-07-22T04:37:19;15.20;;;9.85;;
25962;SDS011;13760;52.588;13.406;2022-07-22T04:39:44;22.45;;;10.20;;
25962;SDS011;13760;52.588;13.406;2022-07-22T04:42:10;12.27;;;10.05;;
25962;SDS011;13760;52.588;13.406;2022-07-22T04:44:36;13.27;;;11.88;;
25962;SDS011;13760;52.588;13.406;2022-07-22T04:47:11;13.20;;;11.80;;
25962;SDS011;13760;52.588;13.406;2022-07-22T04:49:39;13.55;;;12.18;;
25962;SDS011;13760;52.588;13.406;2022-07-22T04:52:05;12.65;;;11.35;;
25962;SDS011;13760;52.588;13.406;2022-07-22T04:54:31;12.77;;;10.63;;
25962;SDS011;13760;52.588;13.406;2022-07-22T04:56:57;14.25;;;11.98;;
25962;SDS011;13760;52.588;13.406;2022-07-22T04:59:22;14.07;;;11.55;;
25962;SDS011;13760;52.588;13.406;2022-07-22T05:01:57;14.70;;;13.20;;
25962;SDS011;13760;52.588;13.406;2022-07-22T05:04:29;13.57;;;11.50;;
25962;SDS011;13760;52.588;13.406;2022-07-22T05:07:09;13.43;;;12.02;;
25962;SDS011;13760;52.588;13.406;2022-07-22T05:09:38;12.93;;;11.50;;
25962;SDS011;13760;52.588;13.406;2022-07-22T05:12:15;14.88;;;12.63;;
25962;SDS011;13760;52.588;13.406;2022-07-22T05:14:40;14.38;;;12.82;;
25962;SDS011;13760;52.588;13.406;2022-07-22T05:17:15;14.80;;;12.82;;
25962;SDS011;13760;52.588;13.406;2022-07-22T05:19:58;14.73;;;11.68;;
25962;SDS011;13760;52.588;13.406;2022-07-22T05:22:29;12.80;;;11.35;;
25962;SDS011;13760;52.588;13.406;2022-07-22T05:25:10;11.23;;;10.07;;
25962;SDS011;13760;52.588;13.406;2022-07-22T05:27:55;13.85;;;12.50;;
25962;SDS011;13760;52.588;13.406;2022-07-22T05:30:21;13.02;;;11.65;;
25962;SDS011;13760;52.588;13.406;2022-07-22T05:32:47;14.57;;;11.68;;
25962;SDS011;13760;52.588;13.406;2022-07-22T05:35:12;13.10;;;11.65;;
25962;SDS011;13760;52.588;13.406;2022-07-22T05:37:38;15.68;;;11.73;;
25962;SDS011;13760;52.588;13.406;2022-07-22T05:40:04;13.55;;;12.15;;
25962;SDS011;13760;52.588;13.406;2022-07-22T05:42:33;14.57;;;11.52;;
25962;SDS011;13760;52.588;13.406;2022-07-22T05:45:01;13.85;;;11.98;;
25962;SDS011;13760;52.588;13.406;2022-07-22T05:47:27;16.50;;;13.35;;
25962;SDS011;13760;52.588;13.406;2022-07-22T05:49:53;13.68;;;11.93;;
25962;SDS011;13760;52.588;13.406;2022-07-22T05:52:19;15.55;;;12.38;;
25962;SDS011;13760;52.588;13.406;2022-07-22T05:54:44;12.52;;;11.13;;
25962;SDS011;13760;52.588;13.406;2022-07-22T05:57:12;14.77;;;11.48;;
25962;SDS011;13760;52.588;13.406;2022-07-22T05:59:44;12.02;;;10.20;;
25962;SDS011;13760;52.588;13.406;2022-07-22T06:02:13;13.75;;;11.25;;
25962;SDS011;13760;52.588;13.406;2022-07-22T06:04:39;13.88;;;12.35;;
25962;SDS011;13760;52.588;13.406;2022-07-22T06:07:04;12.77;;;11.30;;
25962;SDS011;13760;52.588;13.406;2022-07-22T06:09:35;12.80;;;10.13;;
25962;SDS011;13760;52.588;13.406;2022-07-22T06:12:01;12.50;;;11.02;;
25962;SDS011;13760;52.588;13.406;2022-07-22T06:14:30;13.52;;;10.95;;
25962;SDS011;13760;52.588;13.406;2022-07-22T06:16:55;12.60;;;11.02;;
25962;SDS011;13760;52.588;13.406;2022-07-22T06:19:21;13.50;;;11.27;;
25962;SDS011;13760;52.588;13.406;2022-07-22T06:21:50;11.68;;;10.48;;
25962;SDS011;13760;52.588;13.406;2022-07-22T06:24:16;11.98;;;10.70;;
25962;SDS011;13760;52.588;13.406;2022-07-22T06:26:42;11.65;;;10.45;;
25962;SDS011;13760;52.588;13.406;2022-07-22T06:29:19;11.98;;;10.77;;
25962;SDS011;13760;52.588;13.406;2022-07-22T06:31:44;12.63;;;10.73;;
25962;SDS011;13760;52.588;13.406;2022-07-22T06:34:19;11.32;;;10.23;;
25962;SDS011;13760;52.588;13.406;2022-07-22T06:36:54;13.27;;;11.93;;
25962;SDS011;13760;52.588;13.406;2022-07-22T06:39:27;10.75;;;9.70;;
25962;SDS011;13760;52.588;13.406;2022-07-22T06:41:53;13.88;;;10.85;;
25962;SDS011;13760;52.588;13.406;2022-07-22T06:44:19;12.30;;;11.13;;
25962;SDS011;13760;52.588;13.406;2022-07-22T06:46:44;11.88;;;10.52;;
25962;SDS011;13760;52.588;13.406;2022-07-22T06:49:10;13.18;;;11.82;;
25962;SDS011;13760;52.588;13.406;2022-07-22T06:51:36;11.93;;;10.68;;
25962;SDS011;13760;52.588;13.406;2022-07-22T06:54:02;12.32;;;10.63;;
25962;SDS011;13760;52.588;13.406;2022-07-22T06:56:27;12.15;;;10.57;;
25962;SDS011;13760;52.588;13.406;2022-07-22T06:58:53;12.30;;;11.00;;
25962;SDS011;13760;52.588;13.406;2022-07-22T07:01:18;11.57;;;9.35;;
25962;SDS011;13760;52.588;13.406;2022-07-22T07:03:44;11.75;;;9.90;;
25962;SDS011;13760;52.588;13.406;2022-07-22T07:06:10;14.43;;;10.63;;
25962;SDS011;13760;52.588;13.406;2022-07-22T07:08:40;10.73;;;9.73;;
25962;SDS011;13760;52.588;13.406;2022-07-22T07:11:06;10.55;;;9.45;;
25962;SDS011;13760;52.588;13.406;2022-07-22T07:13:33;12.75;;;9.98;;
25962;SDS011;13760;52.588;13.406;2022-07-22T07:15:58;11.68;;;10.48;;
25962;SDS011;13760;52.588;13.406;2022-07-22T07:18:24;12.93;;;10.23;;
25962;SDS011;13760;52.588;13.406;2022-07-22T07:20:50;10.23;;;9.23;;
25962;SDS011;13760;52.588;13.406;2022-07-22T07:23:18;11.95;;;10.57;;
25962;SDS011;13760;52.588;13.406;2022-07-22T07:25:44;10.27;;;9.32;;
25962;SDS011;13760;52.588;13.406;2022-07-22T07:28:10;10.80;;;9.75;;
25962;SDS011;13760;52.588;13.406;2022-07-22T07:30:35;9.98;;;8.98;;
25962;SDS011;13760;52.588;13.406;2022-07-22T07:33:01;9.77;;;8.77;;
25962;SDS011;13760;52.588;13.406;2022-07-22T07:35:27;11.40;;;9.00;;
25962;SDS011;13760;52.588;13.406;2022-07-22T07:37:53;9.70;;;8.73;;
25962;SDS011;13760;52.588;13.406;2022-07-22T07:40:19;9.57;;;8.68;;
25962;SDS011;13760;52.588;13.406;2022-07-22T07:42:44;8.98;;;8.07;;
25962;SDS011;13760;52.588;13.406;2022-07-22T07:45:10;9.85;;;8.05;;
25962;SDS011;13760;52.588;13.406;2022-07-22T07:47:36;12.65;;;8.98;;
25962;SDS011;13760;52.588;13.406;2022-07-22T07:50:02;9.25;;;8.35;;
25962;SDS011;13760;52.588;13.406;2022-07-22T07:52:32;8.68;;;7.78;;
25962;SDS011;13760;52.588;13.406;2022-07-22T07:55:05;10.95;;;8.43;;
25962;SDS011;13760;52.588;13.406;2022-07-22T07:57:32;7.90;;;7.13;;
25962;SDS011;13760;52.588;13.406;2022-07-22T07:59:58;9.38;;;8.07;;
25962;SDS011;13760;52.588;13.406;2022-07-22T08:02:23;9.13;;;6.63;;
25962;SDS011;13760;52.588;13.406;2022-07-22T08:04:49;7.20;;;6.50;;
25962;SDS011;13760;52.588;13.406;2022-07-22T08:07:15;9.90;;;5.78;;
25962;SDS011;13760;52.588;13.406;2022-07-22T08:09:41;7.38;;;6.20;;
25962;SDS011;13760;52.588;13.406;2022-07-22T08:12:06;7.30;;;5.68;;
25962;SDS011;13760;52.588;13.406;2022-07-22T08:14:32;6.28;;;5.68;;
25962;SDS011;13760;52.588;13.406;2022-07-22T08:16:58;5.95;;;5.35;;
25962;SDS011;13760;52.588;13.406;2022-07-22T08:19:24;5.50;;;4.90;;
25962;SDS011;13760;52.588;13.406;2022-07-22T08:21:50;8.77;;;5.13;;
25962;SDS011;13760;52.588;13.406;2022-07-22T08:24:15;6.53;;;4.90;;
25962;SDS011;13760;52.588;13.406;2022-07-22T08:26:41;4.95;;;4.15;;
25962;SDS011;13760;52.588;13.406;2022-07-22T08:29:07;4.85;;;4.40;;
25962;SDS011;13760;52.588;13.406;2022-07-22T08:31:34;5.10;;;4.60;;
25962;SDS011;13760;52.588;13.406;2022-07-22T08:34:04;6.70;;;5.18;;
25962;SDS011;13760;52.588;13.406;2022-07-22T08:36:30;5.57;;;4.00;;
25962;SDS011;13760;52.588;13.406;2022-07-22T08:38:56;5.95;;;4.78;;
25962;SDS011;13760;52.588;13.406;2022-07-22T08:41:22;6.85;;;4.63;;
25962;SDS011;13760;52.588;13.406;2022-07-22T08:43:49;5.30;;;4.80;;
25962;SDS011;13760;52.588;13.406;2022-07-22T08:46:15;5.45;;;4.80;;
25962;SDS011;13760;52.588;13.406;2022-07-22T08:48:43;6.32;;;4.88;;
25962;SDS011;13760;52.588;13.406;2022-07-22T08:51:11;8.02;;;4.63;;
25962;SDS011;13760;52.588;13.406;2022-07-22T08:53:39;5.45;;;4.95;;
25962;SDS011;13760;52.588;13.406;2022-07-22T08:56:17;5.20;;;4.75;;
25962;SDS011;13760;52.588;13.406;2022-07-22T08:59:03;5.35;;;4.78;;
25962;SDS011;13760;52.588;13.406;2022-07-22T09:01:32;5.75;;;5.10;;
25962;SDS011;13760;52.588;13.406;2022-07-22T09:03:58;5.78;;;5.13;;
25962;SDS011;13760;52.588;13.406;2022-07-22T09:06:25;5.40;;;4.90;;
25962;SDS011;13760;52.588;13.406;2022-07-22T09:08:53;5.38;;;4.88;;
25962;SDS011;13760;52.588;13.406;2022-07-22T09:13:49;4.82;;;3.72;;
25962;SDS011;13760;52.588;13.406;2022-07-22T09:16:16;4.88;;;3.53;;
25962;SDS011;13760;52.588;13.406;2022-07-22T09:19:02;6.40;;;4.20;;
25962;SDS011;13760;52.588;13.406;2022-07-22T09:21:31;5.90;;;4.57;;
25962;SDS011;13760;52.588;13.406;2022-07-22T09:23:56;4.88;;;4.20;;
25962;SDS011;13760;52.588;13.406;2022-07-22T09:26:36;4.88;;;4.38;;
25962;SDS011;13760;52.588;13.406;2022-07-22T09:29:03;6.38;;;5.10;;
25962;SDS011;13760;52.588;13.406;2022-07-22T09:31:34;6.65;;;6.05;;
25962;SDS011;13760;52.588;13.406;2022-07-22T09:34:01;10.82;;;6.18;;
25962;SDS011;13760;52.588;13.406;2022-07-22T09:36:29;10.18;;;6.15;;
25962;SDS011;13760;52.588;13.406;2022-07-22T09:38:55;5.95;;;5.28;;
25962;SDS011;13760;52.588;13.406;2022-07-22T09:41:21;8.98;;;5.80;;
25962;SDS011;13760;52.588;13.406;2022-07-22T09:43:47;8.43;;;5.53;;
25962;SDS011;13760;52.588;13.406;2022-07-22T09:46:14;6.47;;;5.43;;
25962;SDS011;13760;52.588;13.406;2022-07-22T09:48:40;6.07;;;5.47;;
25962;SDS011;13760;52.588;13.406;2022-07-22T09:51:06;7.60;;;5.65;;
25962;SDS011;13760;52.588;13.406;2022-07-22T09:53:33;10.07;;;5.30;;
25962;SDS011;13760;52.588;13.406;2022-07-22T09:55:59;6.57;;;5.13;;
25962;SDS011;13760;52.588;13.406;2022-07-22T09:58:28;5.25;;;4.75;;
25962;SDS011;13760;52.588;13.406;2022-07-22T10:00:55;7.55;;;5.60;;
25962;SDS011;13760;52.588;13.406;2022-07-22T10:03:28;4.70;;;4.27;;
25962;SDS011;13760;52.588;13.406;2022-07-22T10:05:57;5.00;;;3.90;;
25962;SDS011;13760;52.588;13.406;2022-07-22T10:08:25;4.78;;;4.20;;
25962;SDS011;13760;52.588;13.406;2022-07-22T10:10:52;6.18;;;3.60;;
25962;SDS011;13760;52.588;13.406;2022-07-22T10:13:18;3.47;;;2.75;;
25962;SDS011;13760;52.588;13.406;2022-07-22T10:15:45;3.30;;;3.00;;
25962;SDS011;13760;52.588;13.406;2022-07-22T10:18:15;3.47;;;3.05;;
25962;SDS011;13760;52.588;13.406;2022-07-22T10:20:43;2.47;;;2.28;;
25962;SDS011;13760;52.588;13.406;2022-07-22T10:23:09;2.58;;;2.30;;
25962;SDS011;13760;52.588;13.406;2022-07-22T10:25:58;2.28;;;2.08;;
25962;SDS011;13760;52.588;13.406;2022-07-22T10:28:26;2.58;;;1.85;;
25962;SDS011;13760;52.588;13.406;2022-07-22T10:30:54;2.45;;;2.10;;
25962;SDS011;13760;52.588;13.406;2022-07-22T10:33:39;1.83;;;1.73;;
25962;SDS011;13760;52.588;13.406;2022-07-22T10:36:05;5.55;;;2.15;;
25962;SDS011;13760;52.588;13.406;2022-07-22T10:38:31;2.10;;;1.90;;
25962;SDS011;13760;52.588;13.406;2022-07-22T10:40:58;2.45;;;2.25;;
25962;SDS011;13760;52.588;13.406;2022-07-22T10:43:28;2.38;;;2.17;;
25962;SDS011;13760;52.588;13.406;2022-07-22T10:45:55;1.83;;;1.73;;
25962;SDS011;13760;52.588;13.406;2022-07-22T10:51:06;2.53;;;2.33;;
25962;SDS011;13760;52.588;13.406;2022-07-22T10:56:21;4.43;;;3.15;;
25962;SDS011;13760;52.588;13.406;2022-07-22T10:58:53;4.72;;;2.75;;
25962;SDS011;13760;52.588;13.406;2022-07-22T11:01:26;3.03;;;2.67;;
25962;SDS011;13760;52.588;13.406;2022-07-22T11:03:54;2.88;;;2.67;;
25962;SDS011;13760;52.588;13.406;2022-07-22T11:06:26;3.83;;;3.47;;
25962;SDS011;13760;52.588;13.406;2022-07-22T11:08:56;5.88;;;3.80;;
25962;SDS011;13760;52.588;13.406;2022-07-22T11:11:31;3.80;;;3.50;;
25962;SDS011;13760;52.588;13.406;2022-07-22T11:14:12;9.45;;;3.97;;
25962;SDS011;13760;52.588;13.406;2022-07-22T11:16:47;4.93;;;4.03;;
25962;SDS011;13760;52.588;13.406;2022-07-22T11:19:14;5.80;;;3.92;;
25962;SDS011;13760;52.588;13.406;2022-07-22T11:21:48;4.68;;;4.15;;
25962;SDS011;13760;52.588;13.406;2022-07-22T11:24:16;5.32;;;3.80;;
25962;SDS011;13760;52.588;13.406;2022-07-22T11:26:43;4.25;;;3.80;;
25962;SDS011;13760;52.588;13.406;2022-07-22T11:29:47;5.30;;;4.80;;
25962;SDS011;13760;52.588;13.406;2022-07-22T11:32:10;4.18;;;3.88;;
25962;SDS011;13760;52.588;13.406;2022-07-22T11:34:37;5.35;;;4.03;;
25962;SDS011;13760;52.588;13.406;2022-07-22T11:39:33;4.70;;;4.28;;
25962;SDS011;13760;52.588;13.406;2022-07-22T11:42:00;4.72;;;4.32;;
25962;SDS011;13760;52.588;13.406;2022-07-22T11:44:27;5.32;;;4.18;;
25962;SDS011;13760;52.588;13.406;2022-07-22T11:46:54;5.25;;;3.47;;
25962;SDS011;13760;52.588;13.406;2022-07-22T11:49:23;3.85;;;3.55;;
25962;SDS011;13760;52.588;13.406;2022-07-22T11:51:51;3.50;;;3.20;;
25962;SDS011;13760;52.588;13.406;2022-07-22T11:54:17;4.90;;;3.50;;
25962;SDS011;13760;52.588;13.406;2022-07-22T11:56:43;3.70;;;3.40;;
25962;SDS011;13760;52.588;13.406;2022-07-22T11:59:11;3.75;;;3.45;;
25962;SDS011;13760;52.588;13.406;2022-07-22T12:01:38;3.55;;;3.25;;
25962;SDS011;13760;52.588;13.406;2022-07-22T12:04:06;4.53;;;3.30;;
25962;SDS011;13760;52.588;13.406;2022-07-22T12:06:34;3.05;;;2.85;;
25962;SDS011;13760;52.588;13.406;2022-07-22T12:11:30;3.70;;;3.40;;
25962;SDS011;13760;52.588;13.406;2022-07-22T12:13:56;3.60;;;3.30;;
25962;SDS011;13760;52.588;13.406;2022-07-22T12:16:30;5.05;;;3.10;;
25962;SDS011;13760;52.588;13.406;2022-07-22T12:18:58;2.97;;;2.78;;
25962;SDS011;13760;52.588;13.406;2022-07-22T12:21:26;3.53;;;2.83;;
25962;SDS011;13760;52.588;13.406;2022-07-22T12:23:54;4.10;;;3.40;;
25962;SDS011;13760;52.588;13.406;2022-07-22T12:26:37;3.33;;;3.03;;
25962;SDS011;13760;52.588;13.406;2022-07-22T12:31:44;4.22;;;3.10;;
25962;SDS011;13760;52.588;13.406;2022-07-22T12:34:11;5.97;;;3.25;;
25962;SDS011;13760;52.588;13.406;2022-07-22T12:36:38;3.45;;;2.40;;
25962;SDS011;13760;52.588;13.406;2022-07-22T12:39:11;3.97;;;3.05;;
25962;SDS011;13760;52.588;13.406;2022-07-22T12:41:46;3.85;;;2.78;;
25962;SDS011;13760;52.588;13.406;2022-07-22T12:44:17;3.15;;;2.20;;
25962;SDS011;13760;52.588;13.406;2022-07-22T12:46:49;3.05;;;2.08;;
25962;SDS011;13760;52.588;13.406;2022-07-22T12:49:17;2.35;;;1.83;;
25962;SDS011;13760;52.588;13.406;2022-07-22T12:54:34;2.50;;;2.30;;
25962;SDS011;13760;52.588;13.406;2022-07-22T12:57:01;2.50;;;2.30;;
25962;SDS011;13760;52.588;13.406;2022-07-22T12:59:27;2.53;;;1.98;;
25962;SDS011;13760;52.588;13.406;2022-07-22T13:01:52;1.70;;;1.50;;
25962;SDS011;13760;52.588;13.406;2022-07-22T13:04:18;4.18;;;1.70;;
25962;SDS011;13760;52.588;13.406;2022-07-22T13:06:43;2.67;;;1.50;;
25962;SDS011;13760;52.588;13.406;2022-07-22T13:09:09;1.92;;;1.80;;
25962;SDS011;13760;52.588;13.406;2022-07-22T13:11:35;6.90;;;2.65;;
25962;SDS011;13760;52.588;13.406;2022-07-22T13:14:04;1.75;;;1.60;;
25962;SDS011;13760;52.588;13.406;2022-07-22T13:16:33;3.65;;;1.73;;
25962;SDS011;13760;52.588;13.406;2022-07-22T13:18:58;5.05;;;1.90;;
25962;SDS011;13760;52.588;13.406;2022-07-22T13:21:24;2.33;;;1.75;;
25962;SDS011;13760;52.588;13.406;2022-07-22T13:23:50;3.40;;;2.20;;
25962;SDS011;13760;52.588;13.406;2022-07-22T13:26:15;3.30;;;2.25;;
25962;SDS011;13760;52.588;13.406;2022-07-22T13:28:41;2.20;;;2.00;;
25962;SDS011;13760;52.588;13.406;2022-07-22T13:31:07;2.10;;;1.90;;
25962;SDS011;13760;52.588;13.406;2022-07-22T13:33:33;2.42;;;1.85;;
25962;SDS011;13760;52.588;13.406;2022-07-22T13:35:59;2.38;;;1.88;;
25962;SDS011;13760;52.588;13.406;2022-07-22T13:38:25;1.55;;;1.45;;
25962;SDS011;13760;52.588;13.406;2022-07-22T13:40:50;2.42;;;1.60;;
25962;SDS011;13760;52.588;13.406;2022-07-22T13:43:20;1.88;;;1.65;;
25962;SDS011;13760;52.588;13.406;2022-07-22T13:45:47;3.28;;;1.63;;
25962;SDS011;13760;52.588;13.406;2022-07-22T13:48:13;1.90;;;1.70;;
25962;SDS011;13760;52.588;13.406;2022-07-22T13:50:39;2.95;;;1.58;;
25962;SDS011;13760;52.588;13.406;2022-07-22T13:53:08;3.10;;;1.70;;
25962;SDS011;13760;52.588;13.406;2022-07-22T13:55:34;1.73;;;1.60;;
25962;SDS011;13760;52.588;13.406;2022-07-22T13:58:02;2.47;;;1.67;;
25962;SDS011;13760;52.588;13.406;2022-07-22T14:00:27;3.65;;;1.67;;
25962;SDS011;13760;52.588;13.406;2022-07-22T14:02:53;1.50;;;1.40;;
25962;SDS011;13760;52.588;13.406;2022-07-22T14:05:18;2.65;;;1.40;;
25962;SDS011;13760;52.588;13.406;2022-07-22T14:07:44;2.50;;;1.30;;
25962;SDS011;13760;52.588;13.406;2022-07-22T14:10:10;3.58;;;1.58;;
25962;SDS011;13760;52.588;13.406;2022-07-22T14:12:36;2.10;;;1.52;;
25962;SDS011;13760;52.588;13.406;2022-07-22T14:15:02;3.83;;;1.73;;
25962;SDS011;13760;52.588;13.406;2022-07-22T14:17:28;3.53;;;1.30;;
25962;SDS011;13760;52.588;13.406;2022-07-22T14:19:55;1.60;;;1.50;;
25962;SDS011;13760;52.588;13.406;2022-07-22T14:22:20;1.85;;;1.60;;
25962;SDS011;13760;52.588;13.406;2022-07-22T14:24:46;1.85;;;1.10;;
25962;SDS011;13760;52.588;13.406;2022-07-22T14:27:12;1.60;;;1.48;;
25962;SDS011;13760;52.588;13.406;2022-07-22T14:29:38;3.03;;;1.40;;
25962;SDS011;13760;52.588;13.406;2022-07-22T14:32:04;3.45;;;1.20;;
25962;SDS011;13760;52.588;13.406;2022-07-22T14:34:30;3.38;;;1.40;;
25962;SDS011;13760;52.588;13.406;2022-07-22T14:36:55;1.98;;;1.50;;
25962;SDS011;13760;52.588;13.406;2022-07-22T14:39:21;2.75;;;1.45;;
25962;SDS011;13760;52.588;13.406;2022-07-22T14:41:46;2.05;;;1.40;;
25962;SDS011;13760;52.588;13.406;2022-07-22T14:44:12;2.95;;;1.30;;
25962;SDS011;13760;52.588;13.406;2022-07-22T14:46:38;1.73;;;1.50;;
25962;SDS011;13760;52.588;13.406;2022-07-22T14:49:04;2.53;;;1.40;;
25962;SDS011;13760;52.588;13.406;2022-07-22T14:51:35;2.45;;;1.55;;